createdAt,value
2022-09-20T00:01:36.013Z,100387.72
2022-09-20T00:04:06.984Z,100386.13
2022-09-20T00:06:35.468Z,100384.59
2022-09-20T00:09:04.056Z,100384.78
2022-09-20T00:11:35.425Z,100383.22
2022-09-20T00:14:08.459Z,100388.59
2022-09-20T00:16:39.806Z,100382.34
2022-09-20T00:19:09.080Z,100379.22
2022-09-20T00:21:37.830Z,100377.66
2022-09-20T00:24:06.115Z,100381.66
2022-09-20T00:26:34.107Z,100375.16
2022-09-20T00:29:01.722Z,100373.03
2022-09-20T00:31:29.843Z,100378.06
2022-09-20T00:34:17.361Z,100379.84
2022-09-20T00:36:45.744Z,100383.16
2022-09-20T00:39:16.165Z,100371.53
2022-09-20T00:41:45.289Z,100374.72
2022-09-20T00:44:42.779Z,100367.66
2022-09-20T00:47:43.808Z,100369.81
2022-09-20T00:50:36.215Z,100361.66
2022-09-20T00:53:26.557Z,100373.72
2022-09-20T00:56:09.899Z,100377.88
2022-09-20T00:58:44.180Z,100373.84
2022-09-20T01:01:12.081Z,100377.69
2022-09-20T01:03:42.239Z,100380.03
2022-09-20T01:06:15.403Z,100374.03
2022-09-20T01:08:49.695Z,100368.56
2022-09-20T01:11:19.211Z,100369.44
2022-09-20T01:13:46.899Z,100370.91
2022-09-20T01:16:17.344Z,100361.97
2022-09-20T01:18:46.287Z,100366.38
2022-09-20T01:21:15.170Z,100364.16
2022-09-20T01:24:31.125Z,100356.00
2022-09-20T01:27:22.451Z,100356.47
2022-09-20T01:30:28.999Z,100356.47
2022-09-20T01:33:18.754Z,100345.13
2022-09-20T01:35:50.235Z,100340.41
2022-09-20T01:38:27.791Z,100339.97
2022-09-20T01:41:01.802Z,100342.78
2022-09-20T01:43:46.498Z,100337.53
2022-09-20T01:46:33.618Z,100354.16
2022-09-20T01:49:21.146Z,100338.06
2022-09-20T01:52:03.006Z,100334.13
2022-09-20T01:54:47.393Z,100349.91
2022-09-20T01:57:57.875Z,100340.66
2022-09-20T02:00:35.069Z,100343.19
2022-09-20T02:03:29.306Z,100338.53
2022-09-20T02:06:22.514Z,100329.56
2022-09-20T02:09:20.524Z,100335.50
2022-09-20T02:12:18.349Z,100331.69
2022-09-20T02:15:34.044Z,100344.22
2022-09-20T02:18:14.123Z,100347.47
2022-09-20T02:21:01.676Z,100345.09
2022-09-20T02:24:00.651Z,100351.13
2022-09-20T02:26:59.284Z,100345.09
2022-09-20T02:30:34.720Z,100344.13
2022-09-20T02:33:17.100Z,100334.38
2022-09-20T02:36:24.816Z,100343.53
2022-09-20T02:39:08.459Z,100333.94
2022-09-20T02:42:05.336Z,100338.41
2022-09-20T02:44:54.678Z,100337.50
2022-09-20T02:47:40.227Z,100331.47
2022-09-20T02:50:45.581Z,100335.06
2022-09-20T02:53:45.765Z,100331.00
2022-09-20T02:56:29.974Z,100352.16
2022-09-20T02:59:15.576Z,100348.22
2022-09-20T03:02:10.947Z,100337.59
2022-09-20T03:05:09.709Z,100341.41
2022-09-20T03:08:18.794Z,100338.94
2022-09-20T03:11:31.905Z,100342.88
2022-09-20T03:14:16.119Z,100339.38
2022-09-20T03:17:05.098Z,100339.63
2022-09-20T03:20:09.508Z,100342.53
2022-09-20T03:22:41.685Z,100355.38
2022-09-20T03:25:47.081Z,100336.28
2022-09-20T03:28:41.847Z,100335.38
2022-09-20T03:31:26.951Z,100328.34
2022-09-20T03:34:10.169Z,100338.75
2022-09-20T03:37:34.525Z,100347.47
2022-09-20T03:40:40.775Z,100344.00
2022-09-20T03:43:43.888Z,100330.22
2022-09-20T03:46:27.020Z,100333.91
2022-09-20T03:49:40.369Z,100337.38
2022-09-20T03:52:19.737Z,100333.03
2022-09-20T03:55:41.389Z,100331.69
2022-09-20T03:58:28.142Z,100346.78
2022-09-20T04:01:46.559Z,100351.16
2022-09-20T04:04:25.705Z,100344.66
2022-09-20T04:07:23.839Z,100331.56
2022-09-20T04:10:18.832Z,100347.22
2022-09-20T04:13:16.771Z,100337.50
2022-09-20T04:16:12.806Z,100341.53
2022-09-20T04:19:12.601Z,100352.47
2022-09-20T04:22:05.682Z,100329.91
2022-09-20T04:25:20.067Z,100335.03
2022-09-20T04:28:00.136Z,100336.59
2022-09-20T04:30:31.972Z,100337.94
2022-09-20T04:33:29.997Z,100344.19
2022-09-20T04:36:54.699Z,100342.53
2022-09-20T04:40:06.319Z,100345.06
2022-09-20T05:00:22.079Z,100390.75
2022-09-20T05:03:32.208Z,100388.19
2022-09-20T05:06:38.313Z,100378.66
2022-09-20T05:09:29.824Z,100385.59
2022-09-20T05:15:41.432Z,100393.72
2022-09-20T05:18:26.507Z,100396.06
2022-09-20T05:21:35.328Z,100390.94
2022-09-20T05:24:32.043Z,100397.88
2022-09-20T05:27:17.693Z,100393.97
2022-09-20T05:30:38.142Z,100392.84
2022-09-20T05:33:52.276Z,100386.00
2022-09-20T05:36:41.676Z,100392.06
2022-09-20T05:39:49.763Z,100389.16
2022-09-20T05:43:01.213Z,100391.19
2022-09-20T05:45:57.201Z,100381.91
2022-09-20T05:48:28.080Z,100388.50
2022-09-20T05:51:31.756Z,100384.88
2022-09-20T05:54:54.786Z,100397.41
2022-09-20T05:58:05.186Z,100391.91
2022-09-20T06:01:07.223Z,100379.22
2022-09-20T06:03:46.603Z,100387.28
2022-09-20T06:06:40.005Z,100375.56
2022-09-20T06:09:36.148Z,100375.88
2022-09-20T06:12:16.397Z,100380.47
2022-09-20T06:15:13.775Z,100369.88
2022-09-20T06:18:00.098Z,100377.13
2022-09-20T06:20:48.919Z,100372.31
2022-09-20T06:23:18.408Z,100390.13
2022-09-20T06:25:57.358Z,100395.59
2022-09-20T06:28:34.279Z,100398.28
2022-09-20T06:31:07.392Z,100402.44
2022-09-20T06:33:45.347Z,100392.47
2022-09-20T06:36:53.572Z,100379.47
2022-09-20T06:39:59.081Z,100392.03
2022-09-20T06:42:27.577Z,100393.81
2022-09-20T06:44:55.839Z,100387.66
2022-09-20T06:47:23.448Z,100386.91
2022-09-20T06:49:50.916Z,100400.31
2022-09-20T06:52:22.825Z,100403.00
2022-09-20T06:54:54.375Z,100401.09
2022-09-20T06:57:38.002Z,100395.59
2022-09-20T07:00:10.309Z,100398.38
2022-09-20T07:02:38.623Z,100400.16
2022-09-20T07:05:07.558Z,100404.59
2022-09-20T07:07:35.019Z,100409.59
2022-09-20T07:10:04.255Z,100408.91
2022-09-20T07:12:34.125Z,100416.75
2022-09-20T07:15:01.607Z,100419.38
2022-09-20T07:17:29.362Z,100427.69
2022-09-20T07:19:57.195Z,100430.13
2022-09-20T07:22:24.665Z,100416.44
2022-09-20T07:24:52.861Z,100425.91
2022-09-20T07:27:21.325Z,100433.16
2022-09-20T07:29:48.800Z,100429.53
2022-09-20T07:32:17.862Z,100429.19
2022-09-20T07:34:45.913Z,100434.69
2022-09-20T07:37:14.045Z,100437.88
2022-09-20T07:39:41.998Z,100428.06
2022-09-20T07:42:09.493Z,100430.66
2022-09-20T07:44:37.234Z,100429.38
2022-09-20T07:47:06.433Z,100433.31
2022-09-20T07:49:34.106Z,100428.97
2022-09-20T07:52:02.578Z,100435.53
2022-09-20T07:54:30.524Z,100431.13
2022-09-20T07:56:58.036Z,100441.47
2022-09-20T07:59:26.014Z,100432.78
2022-09-20T08:01:53.866Z,100435.03
2022-09-20T08:04:21.507Z,100433.28
2022-09-20T08:06:49.077Z,100436.66
2022-09-20T08:09:16.849Z,100436.50
2022-09-20T08:11:44.657Z,100426.16
2022-09-20T08:14:17.864Z,100438.66
2022-09-20T08:16:50.576Z,100421.09
2022-09-20T08:19:23.387Z,100425.94
2022-09-20T08:21:53.978Z,100424.25
2022-09-20T08:24:23.966Z,100424.13
2022-09-20T08:26:52.124Z,100420.19
2022-09-20T08:29:19.746Z,100433.66
2022-09-20T08:31:48.151Z,100422.88
2022-09-20T08:34:17.731Z,100430.06
2022-09-20T08:36:47.225Z,100442.47
2022-09-20T08:42:15.650Z,100430.84
2022-09-20T08:45:01.550Z,100430.00
2022-09-20T08:47:35.417Z,100423.47
2022-09-20T08:50:10.132Z,100431.94
2022-09-20T08:52:40.698Z,100433.53
2022-09-20T08:55:20.630Z,100433.00
2022-09-20T08:57:55.496Z,100422.16
2022-09-20T09:00:33.354Z,100428.03
2022-09-20T09:03:14.348Z,100423.66
2022-09-20T09:05:46.592Z,100423.63
2022-09-20T09:08:18.041Z,100415.94
2022-09-20T09:10:59.851Z,100430.25
2022-09-20T09:13:34.745Z,100423.78
2022-09-20T09:16:12.256Z,100418.44
2022-09-20T09:18:43.545Z,100407.63
2022-09-20T09:21:27.034Z,100407.22
2022-09-20T09:24:19.749Z,100400.06
2022-09-20T09:26:47.514Z,100393.22
2022-09-20T09:29:24.677Z,100398.72
2022-09-20T09:31:56.761Z,100398.81
2022-09-20T09:34:38.770Z,100405.47
2022-09-20T09:37:25.146Z,100393.16
2022-09-20T09:40:24.745Z,100385.00
2022-09-20T09:42:56.936Z,100389.69
2022-09-20T09:45:38.765Z,100381.97
2022-09-20T09:48:28.549Z,100379.81
2022-09-20T09:51:23.590Z,100385.38
2022-09-20T09:53:52.693Z,100379.66
2022-09-20T09:56:35.476Z,100371.63
2022-09-20T09:59:30.067Z,100388.75
2022-09-20T10:02:28.890Z,100366.22
2022-09-20T10:05:33.142Z,100373.19
2022-09-20T10:08:40.282Z,100373.56
2022-09-20T10:11:48.061Z,100370.81
2022-09-20T10:14:46.382Z,100364.56
2022-09-20T10:17:25.797Z,100368.44
2022-09-20T10:20:01.979Z,100373.47
2022-09-20T10:26:45.852Z,100367.75
2022-09-20T10:29:36.995Z,100370.84
2022-09-20T10:32:19.846Z,100367.00
2022-09-20T10:35:20.879Z,100368.19
2022-09-20T10:38:14.710Z,100371.53
2022-09-20T10:41:25.405Z,100365.72
2022-09-20T10:44:18.895Z,100362.28
2022-09-20T10:47:00.713Z,100366.31
2022-09-20T10:49:40.874Z,100368.91
2022-09-20T10:52:51.987Z,100371.72
2022-09-20T10:56:08.196Z,100373.66
2022-09-20T10:58:49.177Z,100372.19
2022-09-20T11:01:32.055Z,100366.94
2022-09-20T11:04:24.318Z,100366.28
2022-09-20T11:07:13.139Z,100365.25
2022-09-20T11:09:56.245Z,100371.22
2022-09-20T11:12:42.543Z,100359.25
2022-09-20T11:15:30.429Z,100373.53
2022-09-20T11:18:23.230Z,100358.47
2022-09-20T11:21:21.974Z,100351.22
2022-09-20T11:23:58.667Z,100345.16
2022-09-20T11:26:44.197Z,100341.72
2022-09-20T11:29:58.748Z,100330.53
2022-09-20T11:32:37.577Z,100343.78
2022-09-20T11:35:11.413Z,100344.59
2022-09-20T11:37:46.611Z,100338.41
2022-09-20T11:40:28.508Z,100339.63
2022-09-20T11:43:00.372Z,100334.91
2022-09-20T11:45:30.114Z,100336.06
2022-09-20T11:48:25.923Z,100340.66
2022-09-20T11:51:45.413Z,100332.09
2022-09-20T11:54:55.753Z,100334.31
2022-09-20T11:57:24.655Z,100333.47
2022-09-20T11:59:57.231Z,100326.44
2022-09-20T12:02:53.974Z,100338.09
2022-09-20T12:05:38.208Z,100328.91
2022-09-20T12:08:26.072Z,100327.84
2022-09-20T12:11:14.106Z,100319.41
2022-09-20T12:13:58.204Z,100322.94
2022-09-20T12:16:46.225Z,100310.56
2022-09-20T12:19:34.423Z,100306.66
2022-09-20T12:22:03.813Z,100335.00
2022-09-20T12:24:43.183Z,100332.25
2022-09-20T12:27:29.437Z,100338.78
2022-09-20T12:30:20.954Z,100340.66
2022-09-20T12:32:58.453Z,100327.44
2022-09-20T12:35:44.528Z,100318.84
2022-09-20T12:38:28.936Z,100313.75
2022-09-20T12:41:09.071Z,100311.72
2022-09-20T12:44:18.619Z,100311.25
2022-09-20T12:47:17.520Z,100314.59
2022-09-20T12:50:06.728Z,100303.72
2022-09-20T12:52:58.531Z,100300.59
2022-09-20T12:55:47.287Z,100292.56
2022-09-20T12:58:14.928Z,100288.44
2022-09-20T13:01:00.604Z,100289.75
2022-09-20T13:03:37.400Z,100290.25
2022-09-20T13:06:08.863Z,100292.63
2022-09-20T13:08:55.463Z,100294.22
2022-09-20T13:11:48.951Z,100294.22
2022-09-20T13:14:22.717Z,100287.22
2022-09-20T13:17:06.834Z,100285.69
2022-09-20T13:19:41.343Z,100288.38
2022-09-20T13:22:30.385Z,100288.34
2022-09-20T13:25:03.350Z,100272.00
2022-09-20T13:28:26.583Z,100270.78
2022-09-20T13:31:22.274Z,100272.97
2022-09-20T13:33:50.392Z,100272.56
2022-09-20T13:36:30.315Z,100272.28
2022-09-20T13:38:59.684Z,100264.72
2022-09-20T13:41:32.569Z,100263.19
2022-09-20T13:44:01.572Z,100268.28
2022-09-20T13:46:33.086Z,100269.75
2022-09-20T13:49:23.749Z,100270.88
2022-09-20T13:51:52.155Z,100256.88
2022-09-20T13:54:32.353Z,100258.41
2022-09-20T13:57:12.564Z,100257.69
2022-09-20T13:59:47.767Z,100270.56
2022-09-20T14:02:31.604Z,100277.59
2022-09-20T14:05:06.000Z,100270.19
2022-09-20T14:07:36.613Z,100279.47
2022-09-20T14:10:25.345Z,100275.50
2022-09-20T14:12:54.672Z,100282.41
2022-09-20T14:15:22.783Z,100295.53
2022-09-20T14:17:53.295Z,100293.38
2022-09-20T14:20:21.290Z,100298.94
2022-09-20T14:22:48.894Z,100304.25
2022-09-20T14:25:16.451Z,100306.44
2022-09-20T14:27:44.444Z,100300.06
2022-09-20T14:30:32.706Z,100310.00
2022-09-20T14:33:01.006Z,100308.03
2022-09-20T14:35:29.038Z,100306.06
2022-09-20T14:38:07.036Z,100313.72
2022-09-20T14:40:45.539Z,100311.75
2022-09-20T14:43:34.669Z,100313.75
2022-09-20T14:46:15.618Z,100317.00
2022-09-20T14:48:45.478Z,100317.09
2022-09-20T14:51:16.369Z,100324.94
2022-09-20T14:53:52.744Z,100325.84
2022-09-20T14:56:35.571Z,100320.06
2022-09-20T14:59:07.647Z,100320.84
2022-09-20T15:01:41.152Z,100307.72
2022-09-20T15:04:21.531Z,100320.50
2022-09-20T15:06:50.944Z,100315.78
2022-09-20T15:09:21.072Z,100314.63
2022-09-20T15:12:01.117Z,100319.72
2022-09-20T15:14:29.812Z,100312.78
2022-09-20T15:17:00.785Z,100315.16
2022-09-20T15:19:30.502Z,100317.56
2022-09-20T15:21:59.453Z,100302.94
2022-09-20T15:24:27.565Z,100306.91
2022-09-20T15:26:55.131Z,100307.03
2022-09-20T15:29:22.961Z,100310.59
2022-09-20T15:31:50.589Z,100303.88
2022-09-20T15:34:18.902Z,100309.22
2022-09-20T15:36:46.790Z,100305.63
2022-09-20T15:39:14.659Z,100310.22
2022-09-20T15:41:43.869Z,100307.41
2022-09-20T15:44:11.569Z,100310.47
2022-09-20T15:46:39.169Z,100318.81
2022-09-20T15:49:08.973Z,100308.59
2022-09-20T15:51:39.114Z,100313.88
2022-09-20T15:54:07.947Z,100316.38
2022-09-20T15:56:37.771Z,100326.72
2022-09-20T15:59:08.741Z,100315.78
2022-09-20T16:01:42.472Z,100315.91
2022-09-20T16:04:15.714Z,100324.66
2022-09-20T16:06:45.586Z,100320.50
2022-09-20T16:09:14.035Z,100318.13
2022-09-20T16:11:41.907Z,100321.19
2022-09-20T16:14:09.559Z,100328.53
2022-09-20T16:16:40.346Z,100329.59
2022-09-20T16:19:21.011Z,100331.81
2022-09-20T16:21:58.268Z,100322.41
2022-09-20T16:24:34.011Z,100330.69
2022-09-20T16:27:06.277Z,100328.59
2022-09-20T16:29:34.653Z,100323.09
2022-09-20T16:32:03.724Z,100324.13
2022-09-20T16:34:35.228Z,100326.75
2022-09-20T16:37:15.884Z,100326.63
2022-09-20T16:39:44.466Z,100324.56
2022-09-20T16:42:13.310Z,100330.56
2022-09-20T16:44:43.027Z,100328.59
2022-09-20T16:47:18.740Z,100339.28
2022-09-20T16:49:47.293Z,100338.44
2022-09-20T16:52:15.205Z,100345.28
2022-09-20T16:54:42.843Z,100345.91
2022-09-20T16:57:10.777Z,100343.09
2022-09-20T16:59:38.552Z,100341.81
2022-09-20T17:02:06.560Z,100338.56
2022-09-20T17:04:34.095Z,100346.94
2022-09-20T17:07:02.271Z,100348.38
2022-09-20T17:09:29.906Z,100344.84
2022-09-20T17:11:57.446Z,100352.09
2022-09-20T17:14:25.781Z,100357.06
2022-09-20T17:16:53.425Z,100355.84
2022-09-20T17:19:21.325Z,100359.69
2022-09-20T17:21:50.883Z,100360.47
2022-09-20T17:24:20.335Z,100360.41
2022-09-20T17:26:49.006Z,100360.34
2022-09-20T17:29:19.034Z,100361.75
2022-09-20T17:31:54.979Z,100362.47
2022-09-20T17:34:24.728Z,100363.94
2022-09-20T17:36:55.165Z,100362.47
2022-09-20T17:39:25.387Z,100368.66
2022-09-20T17:41:53.592Z,100364.03
2022-09-20T17:44:21.495Z,100370.25
2022-09-20T17:46:51.538Z,100367.50
2022-09-20T17:49:22.362Z,100367.03
2022-09-20T17:51:52.678Z,100368.19
2022-09-20T17:54:21.995Z,100369.41
2022-09-20T17:56:52.358Z,100368.72
2022-09-20T17:59:20.859Z,100375.66
2022-09-20T18:01:51.073Z,100384.19
2022-09-20T18:04:21.268Z,100383.44
2022-09-20T18:06:52.955Z,100382.31
2022-09-20T18:09:24.221Z,100385.44
2022-09-20T18:11:54.974Z,100392.75
2022-09-20T18:14:28.051Z,100387.00
2022-09-20T18:17:01.130Z,100393.16
2022-09-20T18:19:33.834Z,100399.78
2022-09-20T18:22:02.894Z,100388.94
2022-09-20T18:24:30.887Z,100403.88
2022-09-20T18:27:00.719Z,100399.63
2022-09-20T18:29:29.505Z,100400.00
2022-09-20T18:31:59.707Z,100408.88
2022-09-20T18:34:32.094Z,100410.97
2022-09-20T18:37:01.348Z,100413.16
2022-09-20T18:39:35.171Z,100418.88
2022-09-20T18:42:03.889Z,100416.19
2022-09-20T18:44:34.344Z,100423.84
2022-09-20T18:47:04.994Z,100419.88
2022-09-20T18:49:36.748Z,100425.97
2022-09-20T18:52:04.825Z,100422.69
2022-09-20T18:54:33.577Z,100426.44
2022-09-20T18:57:02.210Z,100416.38
2022-09-20T18:59:30.312Z,100416.81
2022-09-20T19:02:35.322Z,100421.03
2022-09-20T19:05:23.714Z,100415.50
2022-09-20T19:08:34.502Z,100416.84
2022-09-20T19:11:12.076Z,100416.25
2022-09-20T19:14:07.176Z,100420.09
2022-09-20T19:16:37.040Z,100417.41
2022-09-20T19:19:45.567Z,100416.25
2022-09-20T19:22:19.988Z,100421.03
2022-09-20T19:25:25.247Z,100411.75
2022-09-20T19:27:53.728Z,100411.06
2022-09-20T19:30:22.757Z,100413.50
2022-09-20T19:32:51.014Z,100404.28
2022-09-20T19:35:35.967Z,100412.19
2022-09-20T19:38:35.248Z,100417.56
2022-09-20T19:41:39.710Z,100416.00
2022-09-20T19:44:29.803Z,100419.56
2022-09-20T19:47:01.952Z,100425.81
2022-09-20T19:49:40.845Z,100420.28
2022-09-20T19:52:13.044Z,100421.22
2022-09-20T19:54:46.268Z,100426.19
2022-09-20T19:57:29.062Z,100425.06
2022-09-20T19:59:57.943Z,100424.19
2022-09-20T20:02:26.117Z,100418.78
2022-09-20T20:04:54.090Z,100422.03
2022-09-20T20:07:40.512Z,100419.75
2022-09-20T20:10:23.730Z,100422.25
2022-09-20T20:13:03.100Z,100427.72
2022-09-20T20:15:53.139Z,100427.03
2022-09-20T20:18:51.005Z,100434.81
2022-09-20T20:21:35.464Z,100440.06
2022-09-20T20:24:09.410Z,100444.25
2022-09-20T20:26:37.259Z,100438.53
2022-09-20T20:29:05.002Z,100438.78
2022-09-20T20:31:33.086Z,100443.00
2022-09-20T20:34:00.996Z,100445.25
2022-09-20T20:36:28.599Z,100448.97
2022-09-20T20:38:56.777Z,100452.28
2022-09-20T20:41:24.718Z,100448.25
2022-09-20T20:43:57.280Z,100449.97
2022-09-20T20:46:26.027Z,100451.25
2022-09-20T20:48:54.056Z,100457.97
2022-09-20T20:51:23.406Z,100446.34
2022-09-20T20:53:55.592Z,100449.81
2022-09-20T20:56:29.916Z,100459.59
2022-09-20T20:59:02.110Z,100449.72
2022-09-20T21:01:36.329Z,100459.09
2022-09-20T21:04:07.884Z,100444.28
2022-09-20T21:06:38.202Z,100450.34
2022-09-20T21:09:07.349Z,100458.16
2022-09-20T21:11:44.449Z,100462.53
2022-09-20T21:14:12.903Z,100462.72
2022-09-20T21:16:43.358Z,100454.56
2022-09-20T21:19:15.684Z,100443.56
2022-09-20T21:21:47.176Z,100442.03
2022-09-20T21:24:17.433Z,100447.81
2022-09-20T21:26:49.018Z,100444.81
2022-09-20T21:29:17.085Z,100439.50
2022-09-20T21:31:47.248Z,100454.06
2022-09-20T21:34:16.218Z,100454.75
2022-09-20T21:36:47.208Z,100451.38
2022-09-20T21:39:15.022Z,100457.69
2022-09-20T21:41:42.936Z,100462.19
2022-09-20T21:44:11.602Z,100462.38
2022-09-20T21:46:41.690Z,100455.25
2022-09-20T21:49:11.874Z,100459.06
2022-09-20T21:51:45.268Z,100447.63
2022-09-20T21:54:13.164Z,100450.50
2022-09-20T21:56:41.503Z,100453.22
2022-09-20T21:59:09.516Z,100452.31
2022-09-20T22:01:40.349Z,100453.59
2022-09-20T22:04:10.828Z,100451.38
2022-09-20T22:06:46.361Z,100451.63
2022-09-20T22:09:17.030Z,100449.03
2022-09-20T22:11:49.037Z,100455.72
2022-09-20T22:14:19.630Z,100452.78
2022-09-20T22:16:51.282Z,100461.31
2022-09-20T22:19:19.294Z,100464.53
2022-09-20T22:21:49.956Z,100460.06
2022-09-20T22:24:19.001Z,100461.19
2022-09-20T22:26:49.643Z,100464.47
2022-09-20T22:29:19.115Z,100459.44
2022-09-20T22:31:50.360Z,100467.41
2022-09-20T22:34:21.766Z,100447.94
2022-09-20T22:36:50.666Z,100453.34
2022-09-20T22:39:18.853Z,100475.28
2022-09-20T22:41:48.021Z,100472.50
2022-09-20T22:44:16.036Z,100472.84
2022-09-20T22:46:43.585Z,100471.94
2022-09-20T22:49:11.115Z,100470.59
2022-09-20T22:51:39.222Z,100472.25
2022-09-20T22:54:10.569Z,100465.25
2022-09-20T22:56:41.261Z,100461.88
2022-09-20T22:59:12.514Z,100476.44
2022-09-20T23:01:45.724Z,100463.88
2022-09-20T23:04:20.165Z,100453.47
2022-09-20T23:06:55.041Z,100466.56
2022-09-20T23:09:26.446Z,100475.63
2022-09-20T23:11:54.097Z,100458.50
2022-09-20T23:14:23.412Z,100458.72
2022-09-20T23:16:51.482Z,100468.59
2022-09-20T23:19:19.057Z,100459.63
2022-09-20T23:21:46.654Z,100465.25
2022-09-20T23:24:16.623Z,100456.59
2022-09-20T23:26:45.309Z,100460.53
2022-09-20T23:29:16.061Z,100450.69
2022-09-20T23:31:47.256Z,100449.69
2022-09-20T23:34:17.372Z,100455.59
2022-09-20T23:36:45.682Z,100453.25
2022-09-20T23:39:13.836Z,100460.44
2022-09-20T23:41:42.227Z,100467.22
2022-09-20T23:44:11.814Z,100467.91
2022-09-20T23:46:39.638Z,100452.81
2022-09-20T23:49:09.366Z,100461.66
2022-09-20T23:51:37.747Z,100457.47
2022-09-20T23:54:05.677Z,100461.41
2022-09-20T23:56:33.778Z,100448.53
2022-09-20T23:59:01.588Z,100452.50
